createdAt,value
2017-10-05T00:01:54.709Z,100451
2017-10-05T00:04:21.015Z,100441
2017-10-05T00:06:47.755Z,100449
2017-10-05T00:09:14.007Z,100447
2017-10-05T00:11:40.243Z,100452
2017-10-05T00:14:07.452Z,100452
2017-10-05T00:16:34.478Z,100447
2017-10-05T00:19:00.800Z,100450
2017-10-05T00:21:27.086Z,100446
2017-10-05T00:23:53.320Z,100431
2017-10-05T00:26:19.557Z,100431
2017-10-05T00:28:46.686Z,100437
2017-10-05T00:31:12.922Z,100424
2017-10-05T00:33:39.171Z,100419
2017-10-05T00:36:06.205Z,100414
2017-10-05T00:38:33.197Z,100408
2017-10-05T00:40:59.423Z,100389
2017-10-05T00:43:25.981Z,100404
2017-10-05T00:45:52.232Z,100415
2017-10-05T00:48:18.477Z,100417
2017-10-05T00:50:45.697Z,100406
2017-10-05T00:53:11.977Z,100400
2017-10-05T00:55:39.059Z,100396
2017-10-05T00:58:05.358Z,100390
2017-10-05T01:00:31.637Z,100387
2017-10-05T01:02:57.876Z,100385
2017-10-05T01:05:24.147Z,100384
2017-10-05T01:07:50.409Z,100379
2017-10-05T01:10:16.642Z,100377
2017-10-05T01:12:43.654Z,100363
2017-10-05T01:15:09.918Z,100358
2017-10-05T01:17:36.165Z,100361
2017-10-05T01:20:02.655Z,100346
2017-10-05T01:22:28.909Z,100345
2017-10-05T01:24:55.169Z,100339
2017-10-05T01:27:22.188Z,100332
2017-10-05T01:29:48.457Z,100334
2017-10-05T01:32:15.468Z,100327
2017-10-05T01:34:41.722Z,100322
2017-10-05T01:37:08.706Z,100308
2017-10-05T01:39:34.997Z,100304
2017-10-05T01:42:02.036Z,100306
2017-10-05T01:44:28.298Z,100299
2017-10-05T01:46:54.541Z,100296
2017-10-05T01:49:20.853Z,100300
2017-10-05T01:51:47.105Z,100274
2017-10-05T01:54:13.347Z,100276
2017-10-05T01:56:39.658Z,100262
2017-10-05T01:59:05.884Z,100268
2017-10-05T02:01:32.103Z,100261
2017-10-05T02:03:58.340Z,100247
2017-10-05T02:06:24.566Z,100242
2017-10-05T02:08:50.817Z,100243
2017-10-05T02:11:17.237Z,100237
2017-10-05T02:13:43.465Z,100231
2017-10-05T02:16:09.685Z,100230
2017-10-05T02:18:35.963Z,100231
2017-10-05T02:21:02.225Z,100233
2017-10-05T02:23:28.480Z,100233
2017-10-05T02:25:54.753Z,100234
2017-10-05T02:28:20.986Z,100221
2017-10-05T02:30:47.979Z,100217
2017-10-05T02:33:14.232Z,100215
2017-10-05T02:35:40.498Z,100209
2017-10-05T02:38:07.505Z,100210
2017-10-05T02:40:33.738Z,100198
2017-10-05T02:42:59.962Z,100199
2017-10-05T02:45:26.490Z,100189
2017-10-05T02:47:52.724Z,100184
2017-10-05T02:50:18.973Z,100170
2017-10-05T02:52:45.525Z,100174
2017-10-05T02:55:12.506Z,100162
2017-10-05T02:57:38.736Z,100150
2017-10-05T03:00:05.018Z,100154
2017-10-05T03:02:31.997Z,100158
2017-10-05T03:04:58.267Z,100151
2017-10-05T03:07:24.497Z,100149
2017-10-05T03:09:50.769Z,100141
2017-10-05T03:12:17.797Z,100132
2017-10-05T03:14:44.771Z,100123
2017-10-05T03:17:11.006Z,100115
2017-10-05T03:19:37.289Z,100112
2017-10-05T03:22:03.525Z,100107
2017-10-05T03:24:30.534Z,100107
2017-10-05T03:26:56.808Z,100087
2017-10-05T03:29:23.873Z,100089
2017-10-05T03:31:50.318Z,100078
2017-10-05T03:34:16.589Z,100061
2017-10-05T03:36:42.838Z,100050
2017-10-05T03:39:09.829Z,100045
2017-10-05T03:41:36.401Z,100050
2017-10-05T03:44:02.654Z,100035
2017-10-05T03:46:29.665Z,100020
2017-10-05T03:48:55.954Z,100021
2017-10-05T03:51:22.225Z,100020
2017-10-05T03:53:48.504Z,100014
2017-10-05T03:56:14.889Z,100019
2017-10-05T03:58:41.217Z,100019
2017-10-05T04:01:07.459Z,100010
2017-10-05T04:03:33.733Z,100008
2017-10-05T04:05:59.962Z,100007
2017-10-05T04:08:26.206Z,100006
2017-10-05T04:10:52.869Z,100001
2017-10-05T04:13:19.130Z,99994
2017-10-05T04:15:46.136Z,99992
2017-10-05T04:18:13.443Z,99976
2017-10-05T04:20:39.685Z,99977
2017-10-05T04:23:05.929Z,99975
2017-10-05T04:25:32.278Z,99975
2017-10-05T04:27:58.515Z,99971
2017-10-05T04:30:24.737Z,99959
2017-10-05T04:32:51.031Z,99952
2017-10-05T04:35:17.302Z,99938
2017-10-05T04:37:43.533Z,99924
2017-10-05T04:40:09.859Z,99927
2017-10-05T04:42:36.137Z,99917
2017-10-05T04:45:02.409Z,99910
2017-10-05T04:47:28.664Z,99911
2017-10-05T04:49:54.994Z,99909
2017-10-05T04:52:21.256Z,99892
2017-10-05T04:54:47.500Z,99882
2017-10-05T04:57:13.763Z,99881
2017-10-05T04:59:40.062Z,99873
2017-10-05T05:02:06.326Z,99871
2017-10-05T05:04:32.578Z,99854
2017-10-05T05:06:59.625Z,99854
2017-10-05T05:09:26.591Z,99850
2017-10-05T05:11:52.818Z,99837
2017-10-05T05:14:19.065Z,99822
2017-10-05T05:16:45.289Z,99811
2017-10-05T05:19:11.523Z,99809
2017-10-05T05:21:37.960Z,99818
2017-10-05T05:24:04.209Z,99808
2017-10-05T05:26:30.463Z,99804
2017-10-05T05:28:56.922Z,99795
2017-10-05T05:31:23.918Z,99792
2017-10-05T05:33:50.177Z,99781
2017-10-05T05:36:17.506Z,99778
2017-10-05T05:38:43.766Z,99775
2017-10-05T05:41:10.773Z,99776
2017-10-05T05:43:37.065Z,99774
2017-10-05T05:46:03.334Z,99759
2017-10-05T05:48:29.586Z,99744
2017-10-05T05:50:55.869Z,99727
2017-10-05T05:53:22.155Z,99729
2017-10-05T05:55:49.140Z,99717
2017-10-05T05:58:15.417Z,99710
2017-10-05T06:00:41.702Z,99709
2017-10-05T06:03:08.089Z,99701
2017-10-05T06:05:35.123Z,99689
2017-10-05T06:08:01.410Z,99678
2017-10-05T06:10:27.869Z,99674
2017-10-05T06:12:54.144Z,99666
2017-10-05T06:15:21.154Z,99653
2017-10-05T06:17:47.435Z,99630
2017-10-05T06:20:13.716Z,99622
2017-10-05T06:22:39.953Z,99607
2017-10-05T06:25:06.219Z,99602
2017-10-05T06:27:32.474Z,99592
2017-10-05T06:29:58.696Z,99585
2017-10-05T06:32:24.969Z,99584
2017-10-05T06:34:51.188Z,99582
2017-10-05T06:37:17.433Z,99572
2017-10-05T06:39:44.756Z,99556
2017-10-05T06:42:10.980Z,99552
2017-10-05T06:44:37.222Z,99538
2017-10-05T06:47:03.509Z,99530
2017-10-05T06:49:29.765Z,99523
2017-10-05T06:51:56.005Z,99523
2017-10-05T06:54:22.633Z,99506
2017-10-05T06:56:48.871Z,99496
2017-10-05T06:59:15.517Z,99482
2017-10-05T07:01:41.882Z,99477
2017-10-05T07:04:08.143Z,99475
2017-10-05T07:06:34.385Z,99464
2017-10-05T07:09:00.621Z,99454
2017-10-05T07:11:26.861Z,99444
2017-10-05T07:13:53.139Z,99447
2017-10-05T07:16:19.369Z,99438
2017-10-05T07:18:45.623Z,99423
2017-10-05T07:21:12.618Z,99411
2017-10-05T07:23:39.594Z,99395
2017-10-05T07:26:05.835Z,99383
2017-10-05T07:28:32.377Z,99370
2017-10-05T07:30:58.922Z,99353
2017-10-05T07:33:25.170Z,99347
2017-10-05T07:35:51.677Z,99336
2017-10-05T07:38:17.924Z,99325
2017-10-05T07:40:44.158Z,99315
2017-10-05T07:43:10.424Z,99307
2017-10-05T07:45:38.331Z,99293
2017-10-05T07:48:04.613Z,99281
2017-10-05T07:50:30.863Z,99282
2017-10-05T07:52:57.096Z,99266
2017-10-05T07:55:23.321Z,99258
2017-10-05T07:57:49.581Z,99239
2017-10-05T08:00:15.939Z,99233
2017-10-05T08:02:42.949Z,99220
2017-10-05T08:05:09.210Z,99207
2017-10-05T08:07:36.207Z,99195
2017-10-05T08:10:02.861Z,99183
2017-10-05T08:12:29.091Z,99173
2017-10-05T08:14:55.310Z,99165
2017-10-05T08:17:21.744Z,99145
2017-10-05T08:19:47.965Z,99129
2017-10-05T08:22:14.199Z,99120
2017-10-05T08:24:40.637Z,99109
2017-10-05T08:27:06.984Z,99088
2017-10-05T08:29:34.709Z,99077
2017-10-05T08:32:01.186Z,99074
2017-10-05T08:34:27.464Z,99065
2017-10-05T08:36:53.802Z,99053
2017-10-05T08:39:20.294Z,99047
2017-10-05T08:41:47.488Z,99036
2017-10-05T08:44:13.801Z,99026
2017-10-05T08:46:40.967Z,99016
2017-10-05T08:49:08.327Z,98996
2017-10-05T08:51:34.662Z,98987
2017-10-05T08:54:01.008Z,98977
2017-10-05T08:56:27.313Z,98966
2017-10-05T08:58:53.589Z,98945
2017-10-05T09:01:20.767Z,98944
2017-10-05T09:03:47.314Z,98930
2017-10-05T09:06:13.718Z,98912
2017-10-05T09:08:41.263Z,98903
2017-10-05T09:11:07.861Z,98896
2017-10-05T09:13:34.142Z,98887
2017-10-05T09:16:01.567Z,98876
2017-10-05T09:18:27.854Z,98869
2017-10-05T09:20:55.111Z,98864
2017-10-05T09:23:21.403Z,98854
2017-10-05T09:25:47.917Z,98842
2017-10-05T09:28:14.142Z,98822
2017-10-05T09:30:40.370Z,98823
2017-10-05T09:33:06.938Z,98812
2017-10-05T09:35:33.914Z,98813
2017-10-05T09:38:00.154Z,98798
2017-10-05T09:40:32.119Z,98807
2017-10-05T09:42:58.435Z,98776
2017-10-05T09:48:31.227Z,98751
2017-10-05T09:50:58.385Z,98735
2017-10-05T09:53:26.206Z,98724
2017-10-05T09:55:52.610Z,98714
2017-10-05T09:58:27.254Z,98700
2017-10-05T10:00:59.684Z,98698
2017-10-05T10:03:27.125Z,98699
2017-10-05T10:05:57.123Z,98691
2017-10-05T10:08:24.724Z,98692
2017-10-05T10:10:51.075Z,98683
2017-10-05T10:13:17.323Z,98668
2017-10-05T10:15:43.653Z,98667
2017-10-05T10:18:09.939Z,98661
2017-10-05T10:20:36.209Z,98655
2017-10-05T10:23:02.658Z,98647
2017-10-05T10:25:29.192Z,98647
2017-10-05T10:27:56.233Z,98633
2017-10-05T10:30:22.542Z,98639
2017-10-05T10:32:49.335Z,98634
2017-10-05T10:35:15.624Z,98603
2017-10-05T10:37:42.310Z,98602
2017-10-05T10:40:08.606Z,98584
2017-10-05T10:42:35.853Z,98563
2017-10-05T10:45:02.219Z,98563
2017-10-05T10:47:29.005Z,98551
2017-10-05T10:49:55.283Z,98547
2017-10-05T10:52:22.627Z,98549
2017-10-05T10:54:50.770Z,98530
2017-10-05T10:57:17.477Z,98540
2017-10-05T10:59:43.723Z,98499
2017-10-05T11:02:10.706Z,98495
2017-10-05T11:04:37.778Z,98497
2017-10-05T11:07:04.025Z,98492
2017-10-05T11:09:30.267Z,98481
2017-10-05T11:11:56.495Z,98489
2017-10-05T11:14:23.141Z,98479
2017-10-05T11:16:49.374Z,98471
2017-10-05T11:19:15.597Z,98482
2017-10-05T11:21:41.863Z,98492
2017-10-05T11:24:08.833Z,98508
2017-10-05T11:26:35.062Z,98542
2017-10-05T11:29:01.641Z,98596
2017-10-05T11:31:27.891Z,98653
2017-10-05T11:33:54.122Z,98705
2017-10-05T11:36:20.629Z,98759
2017-10-05T11:38:46.856Z,98848
2017-10-05T11:41:13.435Z,98858
2017-10-05T11:43:40.850Z,98905
2017-10-05T11:46:07.086Z,98983
2017-10-05T11:48:33.450Z,99013
2017-10-05T11:51:00.049Z,99034
2017-10-05T11:53:26.295Z,99067
2017-10-05T11:55:53.073Z,99094
2017-10-05T11:58:19.346Z,99123
2017-10-05T12:00:45.599Z,99160
2017-10-05T12:03:12.590Z,99207
2017-10-05T12:05:39.347Z,99213
2017-10-05T12:08:05.673Z,99255
2017-10-05T12:10:31.911Z,99287
2017-10-05T12:12:58.211Z,99296
2017-10-05T12:15:24.454Z,99355
2017-10-05T12:17:50.691Z,99372
2017-10-05T12:20:16.972Z,99394
2017-10-05T12:22:43.960Z,99377
2017-10-05T12:25:10.182Z,99442
2017-10-05T12:27:36.434Z,99461
2017-10-05T12:30:02.715Z,99460
2017-10-05T12:32:28.961Z,99498
2017-10-05T12:34:55.599Z,99499
2017-10-05T12:37:22.110Z,99530
2017-10-05T12:39:49.385Z,99547
2017-10-05T12:42:15.954Z,99565
2017-10-05T12:44:42.442Z,99581
2017-10-05T12:47:08.966Z,99571
2017-10-05T12:49:35.989Z,99585
2017-10-05T12:52:02.606Z,99605
2017-10-05T12:54:30.106Z,99619
2017-10-05T12:56:57.113Z,99633
2017-10-05T12:59:23.358Z,99643
2017-10-05T13:01:49.586Z,99656
2017-10-05T13:04:15.870Z,99677
2017-10-05T13:06:42.130Z,99683
2017-10-05T13:09:08.522Z,99707
2017-10-05T13:11:35.074Z,99694
2017-10-05T13:14:01.450Z,99724
2017-10-05T13:16:28.430Z,99739
2017-10-05T13:18:54.776Z,99737
2017-10-05T13:21:21.161Z,99735
2017-10-05T13:23:48.769Z,99744
2017-10-05T13:26:16.078Z,99745
2017-10-05T13:28:43.058Z,99769
2017-10-05T13:31:09.304Z,99777
2017-10-05T13:33:35.575Z,99785
2017-10-05T13:36:02.571Z,99785
2017-10-05T13:38:28.827Z,99797
2017-10-05T13:40:55.415Z,99804
2017-10-05T13:43:21.638Z,99819
2017-10-05T13:45:47.870Z,99824
2017-10-05T13:48:14.365Z,99832
2017-10-05T13:50:40.591Z,99828
2017-10-05T13:53:06.822Z,99839
2017-10-05T13:55:33.846Z,99845
2017-10-05T13:58:00.091Z,99855
2017-10-05T14:00:26.331Z,99859
2017-10-05T14:02:52.737Z,99864
2017-10-05T14:05:18.978Z,99858
2017-10-05T14:07:45.236Z,99865
2017-10-05T14:10:12.264Z,99869
2017-10-05T14:12:39.245Z,99874
2017-10-05T14:15:05.479Z,99863
2017-10-05T14:17:31.747Z,99868
2017-10-05T14:19:58.047Z,99882
2017-10-05T14:22:24.483Z,99880
2017-10-05T14:24:51.103Z,99891
2017-10-05T14:27:17.572Z,99883
2017-10-05T14:29:43.987Z,99889
2017-10-05T14:32:10.286Z,99903
2017-10-05T14:34:36.584Z,99908
2017-10-05T14:37:02.853Z,99902
2017-10-05T14:39:29.130Z,99912
2017-10-05T14:41:55.407Z,99894
2017-10-05T14:44:21.679Z,99921
2017-10-05T14:46:47.990Z,99919
2017-10-05T14:49:14.264Z,99920
2017-10-05T14:51:40.518Z,99936
2017-10-05T14:54:06.816Z,99939
2017-10-05T14:56:33.111Z,99944
2017-10-05T14:58:59.407Z,99950
2017-10-05T15:01:25.707Z,99960
2017-10-05T15:03:51.965Z,99963
2017-10-05T15:06:18.938Z,99965
2017-10-05T15:08:45.494Z,99971
2017-10-05T15:11:12.474Z,99973
2017-10-05T15:13:39.441Z,99978
2017-10-05T15:16:05.829Z,99986
2017-10-05T15:18:32.086Z,99993
2017-10-05T15:20:59.289Z,99990
2017-10-05T15:23:25.568Z,99992
2017-10-05T15:25:52.561Z,99999
2017-10-05T15:28:18.877Z,100004
2017-10-05T15:30:45.327Z,100005
2017-10-05T15:33:12.371Z,100020
2017-10-05T15:35:39.020Z,100025
2017-10-05T15:38:06.008Z,100024
2017-10-05T15:40:33.003Z,100030
2017-10-05T15:42:59.649Z,100031
2017-10-05T15:45:25.887Z,100033
2017-10-05T15:47:52.109Z,100029
2017-10-05T15:50:18.643Z,100031
2017-10-05T15:52:44.874Z,100044
2017-10-05T15:55:11.118Z,100038
2017-10-05T15:57:37.483Z,100046
2017-10-05T16:00:03.977Z,100047
2017-10-05T16:02:30.294Z,100040
2017-10-05T16:04:56.542Z,100041
2017-10-05T16:07:23.194Z,100047
2017-10-05T16:09:50.553Z,100054
2017-10-05T16:12:17.571Z,100051
2017-10-05T16:14:44.098Z,100063
2017-10-05T16:17:10.910Z,100060
2017-10-05T16:19:37.147Z,100067
2017-10-05T16:22:03.402Z,100073
2017-10-05T16:24:29.682Z,100064
2017-10-05T16:26:55.907Z,100075
2017-10-05T16:29:22.150Z,100078
2017-10-05T16:31:48.614Z,100087
2017-10-05T16:34:15.211Z,100093
2017-10-05T16:36:41.451Z,100101
2017-10-05T16:39:07.806Z,100104
2017-10-05T16:41:34.316Z,100106
2017-10-05T16:44:00.591Z,100112
2017-10-05T16:46:27.750Z,100117
2017-10-05T16:48:54.034Z,100117
2017-10-05T16:51:20.359Z,100121
2017-10-05T16:53:46.690Z,100132
2017-10-05T16:56:12.933Z,100136
2017-10-05T16:58:39.361Z,100135
2017-10-05T17:01:05.906Z,100138
2017-10-05T17:03:32.232Z,100138
2017-10-05T17:05:58.490Z,100152
2017-10-05T17:08:24.775Z,100155
2017-10-05T17:10:51.022Z,100150
2017-10-05T17:13:17.273Z,100164
2017-10-05T17:15:44.024Z,100161
2017-10-05T17:18:10.362Z,100174
2017-10-05T17:20:37.342Z,100173
2017-10-05T17:23:03.598Z,100175
2017-10-05T17:25:29.826Z,100165
2017-10-05T17:27:56.089Z,100179
2017-10-05T17:30:23.079Z,100178
2017-10-05T17:32:49.755Z,100186
2017-10-05T17:35:16.027Z,100177
2017-10-05T17:37:42.273Z,100193
2017-10-05T17:40:08.505Z,100192
2017-10-05T17:42:35.713Z,100191
2017-10-05T17:45:02.031Z,100198
2017-10-05T17:47:28.828Z,100201
2017-10-05T17:49:55.340Z,100206
2017-10-05T17:52:21.738Z,100207
2017-10-05T17:54:47.975Z,100205
2017-10-05T17:57:14.991Z,100195
2017-10-05T17:59:41.247Z,100202
2017-10-05T18:02:08.239Z,100200
2017-10-05T18:04:34.525Z,100209
2017-10-05T18:07:00.962Z,100206
2017-10-05T18:09:27.946Z,100217
2017-10-05T18:11:54.251Z,100231
2017-10-05T18:14:20.485Z,100246
2017-10-05T18:16:46.734Z,100216
2017-10-05T18:19:13.293Z,100219
2017-10-05T18:21:39.522Z,100236
2017-10-05T18:24:05.756Z,100239
2017-10-05T18:26:32.122Z,100236
2017-10-05T18:28:59.103Z,100233
2017-10-05T18:31:25.352Z,100232
2017-10-05T18:33:51.791Z,100235
2017-10-05T18:36:18.027Z,100249
2017-10-05T18:38:44.261Z,100247
2017-10-05T18:41:10.537Z,100249
2017-10-05T18:43:36.774Z,100243
2017-10-05T18:46:03.021Z,100249
2017-10-05T18:48:29.568Z,100252
2017-10-05T18:50:55.814Z,100254
2017-10-05T18:53:22.080Z,100254
2017-10-05T18:55:48.548Z,100256
2017-10-05T18:58:14.791Z,100252
2017-10-05T19:00:41.045Z,100259
2017-10-05T19:03:08.103Z,100262
2017-10-05T19:05:34.388Z,100253
2017-10-05T19:08:00.622Z,100255
2017-10-05T19:10:26.907Z,100257
2017-10-05T19:12:53.148Z,100259
2017-10-05T19:15:19.410Z,100257
2017-10-05T19:17:45.959Z,100259
2017-10-05T19:20:12.206Z,100255
2017-10-05T19:22:39.208Z,100307
2017-10-05T19:25:05.515Z,100289
2017-10-05T19:27:31.759Z,100251
2017-10-05T19:29:58.134Z,100278
2017-10-05T19:32:25.147Z,100277
2017-10-05T19:34:51.391Z,100274
2017-10-05T19:37:17.643Z,100274
2017-10-05T19:39:44.955Z,100271
2017-10-05T19:42:11.220Z,100274
2017-10-05T19:44:38.253Z,100284
2017-10-05T19:47:04.776Z,100296
2017-10-05T19:49:37.251Z,100288
2017-10-05T19:52:03.499Z,100290
2017-10-05T19:54:30.727Z,100287
2017-10-05T19:56:56.983Z,100288
2017-10-05T19:59:23.966Z,100296
2017-10-05T20:01:50.267Z,100295
2017-10-05T20:04:17.450Z,100313
2017-10-05T20:06:43.744Z,100293
2017-10-05T20:09:11.204Z,100297
2017-10-05T20:11:38.202Z,100286
2017-10-05T20:14:11.482Z,100300
2017-10-05T20:16:39.953Z,100299
2017-10-05T20:25:06.451Z,100306
2017-10-05T20:30:45.874Z,100302
2017-10-05T20:33:12.175Z,100301
2017-10-05T20:35:39.158Z,100295
2017-10-05T20:38:05.480Z,100301
2017-10-05T20:40:31.924Z,100300
2017-10-05T20:42:59.165Z,100298
2017-10-05T20:45:25.908Z,100294
2017-10-05T20:47:52.183Z,100287
2017-10-05T20:50:18.679Z,100286
2017-10-05T20:52:44.954Z,100286
2017-10-05T20:55:11.476Z,100300
2017-10-05T20:57:37.799Z,100304
2017-10-05T21:00:04.047Z,100309
2017-10-05T21:02:30.335Z,100313
2017-10-05T21:04:56.776Z,100316
2017-10-05T21:07:23.120Z,100311
2017-10-05T21:09:49.634Z,100311
2017-10-05T21:12:15.878Z,100308
2017-10-05T21:14:42.148Z,100308
2017-10-05T21:17:09.334Z,100305
2017-10-05T21:19:35.627Z,100305
2017-10-05T21:22:02.879Z,100309
2017-10-05T21:24:30.199Z,100310
2017-10-05T21:26:56.441Z,100304
2017-10-05T21:29:22.980Z,100297
2017-10-05T21:31:49.982Z,100298
2017-10-05T21:34:16.246Z,100301
2017-10-05T21:36:42.980Z,100294
2017-10-05T21:39:09.231Z,100303
2017-10-05T21:41:35.459Z,100312
2017-10-05T21:44:01.719Z,100302
2017-10-05T21:46:27.973Z,100304
2017-10-05T21:48:54.243Z,100305
2017-10-05T21:51:20.590Z,100309
2017-10-05T21:53:47.573Z,100328
2017-10-05T21:56:13.836Z,100325
2017-10-05T21:58:40.112Z,100305
2017-10-05T22:01:06.376Z,100313
2017-10-05T22:03:32.658Z,100305
2017-10-05T22:05:58.912Z,100302
2017-10-05T22:08:25.188Z,100305
2017-10-05T22:10:51.435Z,100305
2017-10-05T22:13:18.488Z,100312
2017-10-05T22:15:45.459Z,100316
2017-10-05T22:18:11.694Z,100315
2017-10-05T22:20:38.079Z,100318
2017-10-05T22:23:05.076Z,100297
2017-10-05T22:25:31.440Z,100297
2017-10-05T22:27:57.744Z,100298
2017-10-05T22:30:23.987Z,100299
2017-10-05T22:32:50.226Z,100321
2017-10-05T22:35:16.480Z,100347
2017-10-05T22:37:43.475Z,100332
2017-10-05T22:40:09.735Z,100326
2017-10-05T22:42:36.254Z,100320
2017-10-05T22:45:02.540Z,100320
2017-10-05T22:47:28.765Z,100314
2017-10-05T22:49:55.065Z,100321
2017-10-05T22:52:22.047Z,100330
2017-10-05T22:54:48.315Z,100322
2017-10-05T22:57:14.602Z,100327
2017-10-05T22:59:40.826Z,100320
2017-10-05T23:02:07.080Z,100323
2017-10-05T23:04:33.340Z,100322
2017-10-05T23:06:59.568Z,100322
2017-10-05T23:09:26.025Z,100331
2017-10-05T23:11:53.015Z,100324
2017-10-05T23:14:19.255Z,100333
2017-10-05T23:16:45.520Z,100330
2017-10-05T23:19:12.498Z,100332
2017-10-05T23:21:38.738Z,100330
2017-10-05T23:24:04.987Z,100324
2017-10-05T23:26:31.250Z,100320
2017-10-05T23:28:58.505Z,100315
2017-10-05T23:31:25.531Z,100306
2017-10-05T23:33:51.776Z,100315
2017-10-05T23:36:19.011Z,100315
2017-10-05T23:38:45.255Z,100338
2017-10-05T23:41:11.499Z,100344
2017-10-05T23:43:38.528Z,100331
2017-10-05T23:46:04.769Z,100341
2017-10-05T23:48:31.763Z,100347
2017-10-05T23:50:58.510Z,100344
2017-10-05T23:53:24.759Z,100347
2017-10-05T23:55:51.000Z,100337
2017-10-05T23:58:17.998Z,100330
